Berlin — 9HA2295 — position and weather

sailwx.info

Track history (hours):
 
Tides and Currents Weather Stations Pressure Air Temp Water Temp Dewpoint Dewpoint Depression Visibility Wind Speed Wind Dir Waves Ship Positions

Berlin

Last reported at 2017-Jul-20 14:00 UTC. Time now 2017-Jul-20 14:42 UTC.
Position N 55°42' E 012°36'.

Length 140 m; draft 5.1 m.

Type: Ship. MMSI: 248277000.

Date/timePositionNaut miles runAvg speedWind from/ knotsBaromVisibWave heightAir tempDewpointWater temp
2017-Jul-20 14:00N 55°42' E 012°36'0 0.0
2017-Jul-20 13:30N 55°42' E 012°36'0 0.0
2017-Jul-20 13:00N 55°42' E 012°36'0 0.0
2017-Jul-20 12:30N 55°42' E 012°36'0 0.0
2017-Jul-20 12:00N 55°42' E 012°36'0 0.0
2017-Jul-20 11:27N 55°42' E 012°36'0 0.0
2017-Jul-20 11:01N 55°42' E 012°36'1 2.8
2017-Jul-20 10:31N 55°41' E 012°38'713.5
2017-Jul-20 10:00N 55°35' E 012°42'612.2
2017-Jul-20 09:31N 55°29' E 012°43'714.6
2017-Jul-20 09:00N 55°22' E 012°41'714.6
2017-Jul-20 08:30N 55°14' E 012°40'715.0
2017-Jul-20 08:00N 55°07' E 012°39'815.2
2017-Jul-20 07:30N 54°59' E 012°37'815.0
2017-Jul-20 07:00N 54°52' E 012°34'714.8
2017-Jul-20 06:30N 54°45' E 012°28'714.4
2017-Jul-20 06:00N 54°39' E 012°23'714.5
2017-Jul-20 05:31N 54°33' E 012°17'914.4
2017-Jul-20 04:53N 54°25' E 012°09'1013.9
2017-Jul-20 04:09N 54°25' E 011°52'613.8
2017-Jul-20 03:44N 54°26' E 011°42'814.4
2017-Jul-20 03:09N 54°29' E 011°29'214.3
2017-Jul-20 03:00N 54°30' E 011°25'713.9
2017-Jul-20 02:30N 54°33' E 011°15'611.2
2017-Jul-20 02:00N 54°35' E 011°06'713.4
2017-Jul-20 01:30N 54°34' E 010°54'714.3
2017-Jul-20 01:00N 54°33' E 010°42'56 6.0
2017-Jul-19 15:38N 54°04' E 009°19'1 7.1
2017-Jul-19 15:30N 54°04' E 009°19'4 7.2
2017-Jul-19 15:00N 53°60' E 009°18'3 6.8
2017-Jul-19 14:31N 53°57' E 009°14'4 8.1
2017-Jul-19 14:00N 53°54' E 009°10'1 1.2
2017-Jul-19 13:22N 53°54' E 009°09'0 0.0
2017-Jul-19 13:00N 53°54' E 009°09'2 4.1
2017-Jul-19 12:30N 53°53' E 009°05'3 6.9
2017-Jul-19 12:00N 53°51' E 009°00'611.4
2017-Jul-19 11:31N 53°50' E 008°51'510.3
2017-Jul-19 11:00N 53°53' E 008°43'611.1
2017-Jul-19 10:30N 53°57' E 008°38'612.0
2017-Jul-19 10:00N 53°59' E 008°28'712.3
2017-Jul-19 09:27N 53°60' E 008°16'4 8.7
2017-Jul-19 09:00N 53°60' E 008°09'612.6
2017-Jul-19 08:30N 53°59' E 007°59'713.9
2017-Jul-19 08:00N 53°57' E 007°48'714.0
2017-Jul-19 07:30N 53°55' E 007°36'7814.6
2017-Jul-19 02:09N 53°34' E 005°29'215.0
2017-Jul-19 01:59N 53°34' E 005°25'1014.9
2017-Jul-19 01:19N 53°30' E 005°10'614.9
2017-Jul-19 00:57N 53°29' E 005°01'2114.5
2017-Jul-18 23:30N 53°14' E 004°36'815.7
2017-Jul-18 23:00N 53°07' E 004°29'815.7
2017-Jul-18 22:30N 53°00' E 004°22'815.4
2017-Jul-18 22:00N 52°54' E 004°16'715.1
2017-Jul-18 21:31N 52°47' E 004°09'815.2
2017-Jul-18 21:01N 52°42' E 004°01'815.1
2017-Jul-18 20:31N 52°36' E 003°52'815.1
2017-Jul-18 20:00N 52°31' E 003°44'715.0
2017-Jul-18 19:30N 52°25' E 003°35'814.7
2017-Jul-18 18:59N 52°20' E 003°27'714.4
2017-Jul-18 18:29N 52°14' E 003°20'714.1
2017-Jul-18 18:00N 52°08' E 003°13'713.7
2017-Jul-18 17:30N 52°03' E 003°06'612.8
2017-Jul-18 17:01N 51°60' E 002°57'713.2
2017-Jul-18 16:31N 51°55' E 002°50'713.2
2017-Jul-18 16:00N 51°49' E 002°45'712.9
2017-Jul-18 15:30N 51°43' E 002°41'713.3
2017-Jul-18 15:00N 51°37' E 002°43'1313.1
2017-Jul-18 14:00N 51°23' E 002°43'510.1
2017-Jul-18 13:30N 51°22' E 002°51'815.5
2017-Jul-18 13:00N 51°22' E 003°03'611.8
2017-Jul-18 12:30N 51°21' E 003°12'0 0.9
2017-Jul-18 12:00N 51°21' E 003°12'0 0.0
2017-Jul-18 11:30N 51°21' E 003°12'0 0.0
2017-Jul-18 11:00N 51°21' E 003°12'0 0.0
2017-Jul-18 10:30N 51°21' E 003°12'0 0.0
2017-Jul-18 10:00N 51°21' E 003°12'0 0.0
2017-Jul-18 09:30N 51°21' E 003°12'0 0.0
2017-Jul-18 09:00N 51°21' E 003°12'0 0.0
2017-Jul-18 08:30N 51°21' E 003°12'0 0.0
2017-Jul-18 08:00N 51°21' E 003°12'0 0.0
2017-Jul-18 07:27N 51°21' E 003°12'0 0.0
2017-Jul-18 07:00N 51°21' E 003°12'0 0.0
2017-Jul-18 06:30N 51°21' E 003°12'0 0.0
2017-Jul-18 06:00N 51°21' E 003°12'0 0.5
2017-Jul-18 05:30N 51°21' E 003°12'611.1
2017-Jul-18 05:00N 51°24' E 003°05'714.1
2017-Jul-18 04:30N 51°22' E 002°54'612.4
2017-Jul-18 04:00N 51°21' E 002°44'5 9.1
2017-Jul-18 03:30N 51°22' E 002°37'5 9.3
2017-Jul-18 03:00N 51°26' E 002°32'816.4
2017-Jul-18 02:30N 51°33' E 002°37'816.0
2017-Jul-18 02:00N 51°41' E 002°39'815.9
2017-Jul-18 01:30N 51°49' E 002°37'815.8
2017-Jul-18 01:01N 51°57' E 002°36'815.5
2017-Jul-18 00:30N 52°05' E 002°36'715.0
2017-Jul-18 00:00N 52°12' E 002°40'714.8
2017-Jul-17 23:31N 52°18' E 002°45'714.4
2017-Jul-17 23:01N 52°25' E 002°50'714.2
2017-Jul-17 22:31N 52°31' E 002°56'714.0
2017-Jul-17 22:00N 52°37' E 003°01'713.8
2017-Jul-17 21:30N 52°44' E 003°06'713.6
2017-Jul-17 21:00N 52°50' E 003°11'813.5
2017-Jul-17 20:26N 52°57' E 003°17'713.7
2017-Jul-17 19:56N 53°03' E 003°20'614.0
2017-Jul-17 19:30N 53°09' E 003°23'714.3
2017-Jul-17 19:00N 53°16' E 003°26'814.8
2017-Jul-17 18:29N 53°23' E 003°30'3714.5
2017-Jul-17 15:57N 53°54' E 004°05'714.9
2017-Jul-17 15:30N 53°58' E 004°14'814.7
2017-Jul-17 14:59N 54°03' E 004°24'714.5
2017-Jul-17 14:29N 54°10' E 004°25'25814.6
2017-Jul-16 20:48N 58°26' E 005°14'414.5
2017-Jul-16 20:30N 58°30' E 005°16'714.4
2017-Jul-16 20:00N 58°37' E 005°19'714.2
2017-Jul-16 19:30N 58°44' E 005°22'612.8
2017-Jul-16 19:00N 58°50' E 005°26'611.7
2017-Jul-16 18:30N 58°55' E 005°33'714.7
2017-Jul-16 18:01N 59°03' E 005°33'611.1
2017-Jul-16 17:30N 58°60' E 005°42'2 2.8
2017-Jul-16 16:58N 58°58' E 005°44'0 0.0
2017-Jul-16 16:28N 58°58' E 005°44'0 0.0
2017-Jul-16 15:58N 58°58' E 005°44'0 0.0
2017-Jul-16 15:28N 58°58' E 005°44'0 0.0
2017-Jul-16 14:58N 58°58' E 005°44'0 0.0
2017-Jul-16 14:28N 58°58' E 005°44'0 0.0
2017-Jul-16 13:58N 58°58' E 005°44'0 0.0
2017-Jul-16 13:28N 58°58' E 005°44'0 0.0
2017-Jul-16 12:58N 58°58' E 005°44'0 0.0
2017-Jul-16 12:28N 58°58' E 005°44'0 0.0
2017-Jul-16 11:58N 58°58' E 005°44'0 0.0
2017-Jul-16 11:28N 58°58' E 005°44'0 0.0
2017-Jul-16 10:58N 58°58' E 005°44'0 0.0
2017-Jul-16 10:28N 58°58' E 005°44'0 0.0
2017-Jul-16 09:58N 58°58' E 005°44'0 0.0
2017-Jul-16 09:28N 58°58' E 005°44'0 0.0
2017-Jul-16 08:58N 58°58' E 005°44'0 0.0
2017-Jul-16 08:28N 58°58' E 005°44'3 6.2
2017-Jul-16 08:00N 59°01' E 005°40'714.7
2017-Jul-16 07:30N 59°06' E 005°30'713.2
2017-Jul-16 07:00N 59°07' E 005°18'714.0
2017-Jul-16 06:30N 59°09' E 005°05'714.2
2017-Jul-16 06:00N 59°13' E 004°54'713.8
2017-Jul-16 05:30N 59°19' E 004°47'814.9
2017-Jul-16 04:59N 59°27' E 004°46'714.9
2017-Jul-16 04:30N 59°34' E 004°46'714.5
2017-Jul-16 04:00N 59°41' E 004°47'714.0
2017-Jul-16 03:30N 59°48' E 004°47'714.0
2017-Jul-16 03:00N 59°55' E 004°46'713.7
2017-Jul-16 02:30N 60°02' E 004°46'713.6
2017-Jul-16 02:00N 60°09' E 004°46'713.1
2017-Jul-16 01:30N 60°16' E 004°44'612.6
2017-Jul-16 01:00N 60°22' E 004°42'612.2
2017-Jul-16 00:30N 60°28' E 004°40'510.7
2017-Jul-16 00:00N 60°33' E 004°37'5 9.7
2017-Jul-15 23:30N 60°38' E 004°35'5 9.3
2017-Jul-15 23:00N 60°42' E 004°32'510.2
2017-Jul-15 22:30N 60°47' E 004°27'510.1
2017-Jul-15 22:00N 60°51' E 004°24'510.3
2017-Jul-15 21:30N 60°57' E 004°22'510.4
2017-Jul-15 21:00N 61°02' E 004°21'510.8
2017-Jul-15 20:30N 61°07' E 004°21'611.3
2017-Jul-15 20:00N 61°13' E 004°22'611.6
2017-Jul-15 19:30N 61°19' E 004°22'612.3
2017-Jul-15 19:00N 61°25' E 004°23'612.6
2017-Jul-15 18:30N 61°31' E 004°25'612.6
2017-Jul-15 18:00N 61°37' E 004°26'612.7
2017-Jul-15 17:30N 61°44' E 004°27'713.1
2017-Jul-15 17:00N 61°49' E 004°33'713.3
2017-Jul-15 16:30N 61°56' E 004°38'713.3
2017-Jul-15 16:00N 62°02' E 004°43'713.4
2017-Jul-15 15:30N 62°08' E 004°47'612.5
2017-Jul-15 15:00N 62°13' E 004°54'10 9.7
2017-Jul-15 14:00N 62°21' E 005°08'5 9.4
2017-Jul-15 13:29N 62°24' E 005°17'611.9
2017-Jul-15 13:00N 62°27' E 005°27'714.1
2017-Jul-15 12:30N 62°30' E 005°41'714.0
2017-Jul-15 12:00N 62°27' E 005°55'511.0
2017-Jul-15 11:30N 62°27' E 006°06'2 3.7
2017-Jul-15 11:00N 62°28' E 006°09'0 0.0
2017-Jul-15 10:25N 62°28' E 006°09'0 0.0
2017-Jul-15 09:58N 62°28' E 006°09'0 0.0
2017-Jul-15 09:28N 62°28' E 006°09'0 0.0
2017-Jul-15 08:58N 62°28' E 006°09'0 0.0
2017-Jul-15 08:28N 62°28' E 006°09'0 0.0
2017-Jul-15 07:58N 62°28' E 006°09'0 0.0
2017-Jul-15 07:28N 62°28' E 006°09'0 0.0
2017-Jul-15 06:58N 62°28' E 006°09'0 0.0
2017-Jul-15 06:28N 62°28' E 006°09'0 0.0
2017-Jul-15 05:58N 62°28' E 006°09'0 0.0
2017-Jul-15 05:28N 62°28' E 006°09'0 0.0
2017-Jul-15 04:58N 62°28' E 006°09'1 1.2
2017-Jul-15 04:30N 62°28' E 006°10'3 5.2
2017-Jul-15 04:00N 62°28' E 006°05'5 9.7
2017-Jul-15 03:30N 62°32' E 006°10'510.3
2017-Jul-15 03:00N 62°36' E 006°17'510.4
2017-Jul-15 02:30N 62°40' E 006°25'510.4
2017-Jul-15 02:00N 62°44' E 006°31'510.5
2017-Jul-15 01:30N 62°48' E 006°37'510.5
2017-Jul-15 01:00N 62°53' E 006°43'510.5
2017-Jul-15 00:30N 62°57' E 006°50'510.2
2017-Jul-15 00:00N 62°60' E 006°60'611.2
2017-Jul-14 23:30N 63°02' E 007°11'611.3
2017-Jul-14 23:00N 63°04' E 007°23'611.4
2017-Jul-14 22:30N 63°07' E 007°34'4 8.5
2017-Jul-14 22:00N 63°06' E 007°43'1 1.1
2017-Jul-14 21:30N 63°07' E 007°44'0 0.0
2017-Jul-14 21:00N 63°07' E 007°44'0 0.0
2017-Jul-14 20:30N 63°07' E 007°44'0 0.0
2017-Jul-14 20:00N 63°07' E 007°44'0 0.0
2017-Jul-14 19:30N 63°07' E 007°44'0 0.0
2017-Jul-14 19:00N 63°07' E 007°44'0 0.0
2017-Jul-14 18:30N 63°07' E 007°44'0 0.0
2017-Jul-14 18:00N 63°07' E 007°44'0 0.0
2017-Jul-14 17:30N 63°07' E 007°44'0 0.0
2017-Jul-14 17:00N 63°07' E 007°44'0 0.0
2017-Jul-14 16:30N 63°07' E 007°44'0 0.0
2017-Jul-14 16:00N 63°07' E 007°44'0 0.0
2017-Jul-14 15:30N 63°07' E 007°44'0 0.0
2017-Jul-14 15:00N 63°07' E 007°44'0 0.0
2017-Jul-14 14:30N 63°07' E 007°44'0 0.0
2017-Jul-14 14:00N 63°07' E 007°44'0 0.0
2017-Jul-14 13:30N 63°07' E 007°44'0 0.0
2017-Jul-14 13:00N 63°07' E 007°44'0 0.0
2017-Jul-14 12:30N 63°07' E 007°44'0 0.0
2017-Jul-14 12:00N 63°07' E 007°44'0 0.0
2017-Jul-14 11:30N 63°07' E 007°44'0 0.0
2017-Jul-14 11:00N 63°07' E 007°44'0 0.0
2017-Jul-14 10:30N 63°07' E 007°44'0 0.0
2017-Jul-14 10:00N 63°07' E 007°44'0 0.0
2017-Jul-14 09:30N 63°07' E 007°44'0 1.0
2017-Jul-14 09:00N 63°06' E 007°45'3 5.7
2017-Jul-14 08:30N 63°09' E 007°42'5 9.5
2017-Jul-14 08:00N 63°14' E 007°44'611.3
2017-Jul-14 07:30N 63°18' E 007°36'713.2
2017-Jul-14 07:00N 63°25' E 007°36'612.8
2017-Jul-14 06:30N 63°31' E 007°37'713.2
2017-Jul-14 06:00N 63°37' E 007°45'713.3
2017-Jul-14 05:30N 63°43' E 007°52'713.3
2017-Jul-14 05:00N 63°49' E 007°59'713.3
2017-Jul-14 04:29N 63°54' E 008°07'17112.2
2017-Jul-13 14:25N 66°23' E 011°28'410.6
2017-Jul-13 14:01N 66°27' E 011°33'510.7
2017-Jul-13 13:30N 66°32' E 011°40'510.6
2017-Jul-13 13:00N 66°36' E 011°46'510.7
2017-Jul-13 12:31N 66°41' E 011°53'4110.7
2017-Jul-13 08:44N 67°13' E 012°56'311.4
2017-Jul-13 08:30N 67°15' E 013°00'611.4
2017-Jul-13 08:00N 67°20' E 013°09'713.7
2017-Jul-13 07:30N 67°25' E 013°20'815.2
2017-Jul-13 07:00N 67°31' E 013°33'815.1
2017-Jul-13 06:30N 67°37' E 013°44'815.0
2017-Jul-13 06:00N 67°43' E 013°57'815.1
2017-Jul-13 05:30N 67°49' E 014°09'815.1
2017-Jul-13 05:00N 67°55' E 014°22'815.2
2017-Jul-13 04:30N 67°60' E 014°37'815.4
2017-Jul-13 04:00N 68°04' E 014°54'815.3
2017-Jul-13 03:30N 68°08' E 015°12'815.3
2017-Jul-13 03:00N 68°12' E 015°30'815.0
2017-Jul-13 02:30N 68°17' E 015°46'714.9
2017-Jul-13 02:00N 68°22' E 015°60'612.2
2017-Jul-13 01:30N 68°28' E 016°05'713.8
2017-Jul-13 01:00N 68°33' E 016°17'611.8
2017-Jul-13 00:30N 68°35' E 016°32'714.7
2017-Jul-13 00:00N 68°41' E 016°41'815.3
2017-Jul-12 23:30N 68°48' E 016°50'815.0
2017-Jul-12 23:00N 68°54' E 017°02'714.6
2017-Jul-12 22:30N 68°60' E 017°15'714.3
2017-Jul-12 22:00N 69°06' E 017°27'713.8
2017-Jul-12 21:30N 69°08' E 017°44'713.6
2017-Jul-12 21:00N 69°11' E 018°01'612.1
2017-Jul-12 20:30N 69°17' E 017°58'611.8
2017-Jul-12 20:01N 69°23' E 018°05'612.7
2017-Jul-12 19:30N 69°29' E 018°10'713.7
2017-Jul-12 19:01N 69°32' E 018°28'814.8
2017-Jul-12 18:30N 69°34' E 018°48'610.8
2017-Jul-12 17:59N 69°39' E 018°58'0 0.0
2017-Jul-12 17:29N 69°39' E 018°58'0 0.0
2017-Jul-12 16:59N 69°39' E 018°58'0 0.0
2017-Jul-12 16:29N 69°39' E 018°58'0 0.0
2017-Jul-12 15:59N 69°39' E 018°58'0 0.0
2017-Jul-12 15:29N 69°39' E 018°58'0 0.0
2017-Jul-12 14:59N 69°39' E 018°58'0 0.0
2017-Jul-12 13:59N 69°39' E 018°58'0 0.0
2017-Jul-12 13:29N 69°39' E 018°58'0 0.0
2017-Jul-12 12:59N 69°39' E 018°58'0 0.0
2017-Jul-12 12:29N 69°39' E 018°58'0 0.0
2017-Jul-12 11:59N 69°39' E 018°58'0 0.0
2017-Jul-12 11:29N 69°39' E 018°58'1 1.5
2017-Jul-12 11:00N 69°39' E 018°59'4 7.6
2017-Jul-12 10:30N 69°43' E 019°03'611.1
2017-Jul-12 09:59N 69°47' E 019°14'612.8
2017-Jul-12 09:30N 69°49' E 019°32'612.9
2017-Jul-12 09:00N 69°52' E 019°48'713.3
2017-Jul-12 08:30N 69°56' E 020°04'712.9
2017-Jul-12 08:00N 69°60' E 020°19'713.1
2017-Jul-12 07:30N 70°01' E 020°38'713.1
2017-Jul-12 07:00N 70°04' E 020°55'713.2
2017-Jul-12 06:30N 70°10' E 021°04'612.9
2017-Jul-12 06:00N 70°15' E 021°15'714.1
2017-Jul-12 05:30N 70°20' E 021°30'713.9
2017-Jul-12 05:00N 70°25' E 021°45'714.6
2017-Jul-12 04:30N 70°27' E 022°06'814.9
2017-Jul-12 04:00N 70°28' E 022°29'713.9
2017-Jul-12 03:31N 70°30' E 022°48'713.7
2017-Jul-12 03:00N 70°34' E 023°05'713.7
2017-Jul-12 02:30N 70°39' E 023°20'613.1
2017-Jul-12 02:01N 70°43' E 023°33'713.8
2017-Jul-12 01:30N 70°49' E 023°48'714.0
2017-Jul-12 01:00N 70°53' E 024°04'714.0
2017-Jul-12 00:30N 70°58' E 024°20'713.5
2017-Jul-12 00:00N 71°02' E 024°36'714.5
2017-Jul-11 23:30N 70°60' E 024°57'714.8
2017-Jul-11 23:00N 70°59' E 025°20'714.2
2017-Jul-11 22:30N 70°56' E 025°39'613.0
2017-Jul-11 22:00N 70°58' E 025°56'1 1.7
2017-Jul-11 21:30N 70°59' E 025°58'0 0.0
2017-Jul-11 21:00N 70°59' E 025°58'0 0.0
2017-Jul-11 20:30N 70°59' E 025°58'0 0.0
2017-Jul-11 20:00N 70°59' E 025°58'0 0.0
2017-Jul-11 19:30N 70°59' E 025°58'0 0.0
2017-Jul-11 19:00N 70°59' E 025°58'0 0.0
2017-Jul-11 18:30N 70°59' E 025°58'0 0.0
2017-Jul-11 18:00N 70°59' E 025°58'0 0.0
2017-Jul-11 17:30N 70°59' E 025°58'0 0.0
2017-Jul-11 17:00N 70°59' E 025°58'0 0.0
2017-Jul-11 16:30N 70°59' E 025°58'0 0.0
2017-Jul-11 16:00N 70°59' E 025°58'1 1.3
2017-Jul-11 15:30N 70°59' E 025°56'5 9.1
2017-Jul-11 15:00N 70°56' E 025°44'714.4
2017-Jul-11 14:30N 70°59' E 025°24'714.9
2017-Jul-11 14:00N 70°59' E 025°01'815.5
2017-Jul-11 13:30N 71°02' E 024°38'714.0
2017-Jul-11 13:00N 70°58' E 024°20'815.7
2017-Jul-11 12:30N 70°52' E 024°03'715.1
2017-Jul-11 12:00N 70°47' E 023°46'714.7
2017-Jul-11 11:30N 70°42' E 023°30'815.1
2017-Jul-11 11:00N 70°37' E 023°14'815.4
2017-Jul-11 10:30N 70°31' E 022°58'815.3
2017-Jul-11 10:00N 70°28' E 022°36'714.8
2017-Jul-11 09:30N 70°27' E 022°15'714.9
2017-Jul-11 09:00N 70°25' E 021°53'714.4
2017-Jul-11 08:30N 70°22' E 021°35'815.1
2017-Jul-11 08:00N 70°16' E 021°18'714.1
2017-Jul-11 07:30N 70°11' E 021°05'715.0
2017-Jul-11 07:00N 70°04' E 020°55'714.8
2017-Jul-11 06:30N 70°01' E 020°35'815.1
2017-Jul-11 06:00N 69°59' E 020°14'815.1
2017-Jul-11 05:30N 69°54' E 019°57'814.9
2017-Jul-11 05:00N 69°50' E 019°39'815.3
2017-Jul-11 04:30N 69°47' E 019°19'714.7
2017-Jul-11 04:00N 69°44' E 019°00'612.4
2017-Jul-11 03:30N 69°38' E 018°53'612.1
2017-Jul-11 03:00N 69°33' E 018°43'713.9
2017-Jul-11 02:30N 69°31' E 018°23'713.6
2017-Jul-11 02:00N 69°27' E 018°07'713.6
2017-Jul-11 01:30N 69°21' E 018°05'612.4
2017-Jul-11 01:01N 69°15' E 017°58'510.5
2017-Jul-11 00:30N 69°10' E 017°57'815.2
2017-Jul-11 00:00N 69°07' E 017°37'714.5
2017-Jul-10 23:30N 69°03' E 017°20'715.0
2017-Jul-10 23:00N 68°57' E 017°07'815.0
2017-Jul-10 22:30N 68°51' E 016°55'714.8
2017-Jul-10 22:00N 68°45' E 016°45'714.2
2017-Jul-10 21:30N 68°38' E 016°36'612.1
2017-Jul-10 21:00N 68°33' E 016°26'713.1
2017-Jul-10 20:30N 68°31' E 016°10'713.2
2017-Jul-10 20:00N 68°25' E 016°03'714.3
2017-Jul-10 19:30N 68°19' E 015°52'714.7
2017-Jul-10 19:00N 68°14' E 015°38'714.8
2017-Jul-10 18:30N 68°11' E 015°19'714.6
2017-Jul-10 18:00N 68°08' E 015°01'714.7
2017-Jul-10 17:30N 68°06' E 014°42'714.7
2017-Jul-10 17:00N 68°04' E 014°24'714.8
2017-Jul-10 16:30N 68°03' E 014°04'815.2
2017-Jul-10 16:00N 68°02' E 013°44'510.4
2017-Jul-10 15:31N 68°06' E 013°36'1 2.7
2017-Jul-10 14:58N 68°08' E 013°34'0 0.0
2017-Jul-10 14:28N 68°08' E 013°34'  
Track history (hours):
 
Tides and Currents Weather Stations Pressure Air Temp Water Temp Dewpoint Dewpoint Depression Visibility Wind Speed Wind Dir Waves Ship Positions

Berlin

Last reported at 2017-Jul-20 14:00 UTC. Time now 2017-Jul-20 14:42 UTC.
Position N 55°42' E 012°36'.

Length 140 m; draft 5.1 m.

Type: Ship. MMSI: 248277000.

Date/timePositionNaut miles runAvg speedWind from/ knotsBaromVisibWave heightAir tempDewpointWater temp
2017-Jul-20 14:00N 55°42' E 012°36'0 0.0
2017-Jul-20 13:30N 55°42' E 012°36'0 0.0
2017-Jul-20 13:00N 55°42' E 012°36'0 0.0
2017-Jul-20 12:30N 55°42' E 012°36'0 0.0
2017-Jul-20 12:00N 55°42' E 012°36'0 0.0
2017-Jul-20 11:27N 55°42' E 012°36'0 0.0
2017-Jul-20 11:01N 55°42' E 012°36'1 2.8
2017-Jul-20 10:31N 55°41' E 012°38'713.5
2017-Jul-20 10:00N 55°35' E 012°42'612.2
2017-Jul-20 09:31N 55°29' E 012°43'714.6
2017-Jul-20 09:00N 55°22' E 012°41'714.6
2017-Jul-20 08:30N 55°14' E 012°40'715.0
2017-Jul-20 08:00N 55°07' E 012°39'815.2
2017-Jul-20 07:30N 54°59' E 012°37'815.0
2017-Jul-20 07:00N 54°52' E 012°34'714.8
2017-Jul-20 06:30N 54°45' E 012°28'714.4
2017-Jul-20 06:00N 54°39' E 012°23'714.5
2017-Jul-20 05:31N 54°33' E 012°17'914.4
2017-Jul-20 04:53N 54°25' E 012°09'1013.9
2017-Jul-20 04:09N 54°25' E 011°52'613.8
2017-Jul-20 03:44N 54°26' E 011°42'814.4
2017-Jul-20 03:09N 54°29' E 011°29'214.3
2017-Jul-20 03:00N 54°30' E 011°25'713.9
2017-Jul-20 02:30N 54°33' E 011°15'611.2
2017-Jul-20 02:00N 54°35' E 011°06'713.4
2017-Jul-20 01:30N 54°34' E 010°54'714.3
2017-Jul-20 01:00N 54°33' E 010°42'56 6.0
2017-Jul-19 15:38N 54°04' E 009°19'1 7.1
2017-Jul-19 15:30N 54°04' E 009°19'4 7.2
2017-Jul-19 15:00N 53°60' E 009°18'3 6.8
2017-Jul-19 14:31N 53°57' E 009°14'4 8.1
2017-Jul-19 14:00N 53°54' E 009°10'1 1.2
2017-Jul-19 13:22N 53°54' E 009°09'0 0.0
2017-Jul-19 13:00N 53°54' E 009°09'2 4.1
2017-Jul-19 12:30N 53°53' E 009°05'3 6.9
2017-Jul-19 12:00N 53°51' E 009°00'611.4
2017-Jul-19 11:31N 53°50' E 008°51'510.3
2017-Jul-19 11:00N 53°53' E 008°43'611.1
2017-Jul-19 10:30N 53°57' E 008°38'612.0
2017-Jul-19 10:00N 53°59' E 008°28'712.3
2017-Jul-19 09:27N 53°60' E 008°16'4 8.7
2017-Jul-19 09:00N 53°60' E 008°09'612.6
2017-Jul-19 08:30N 53°59' E 007°59'713.9
2017-Jul-19 08:00N 53°57' E 007°48'714.0
2017-Jul-19 07:30N 53°55' E 007°36'7814.6
2017-Jul-19 02:09N 53°34' E 005°29'215.0
2017-Jul-19 01:59N 53°34' E 005°25'1014.9
2017-Jul-19 01:19N 53°30' E 005°10'614.9
2017-Jul-19 00:57N 53°29' E 005°01'2114.5
2017-Jul-18 23:30N 53°14' E 004°36'815.7
2017-Jul-18 23:00N 53°07' E 004°29'815.7
2017-Jul-18 22:30N 53°00' E 004°22'815.4
2017-Jul-18 22:00N 52°54' E 004°16'715.1
2017-Jul-18 21:31N 52°47' E 004°09'815.2
2017-Jul-18 21:01N 52°42' E 004°01'815.1
2017-Jul-18 20:31N 52°36' E 003°52'815.1
2017-Jul-18 20:00N 52°31' E 003°44'715.0
2017-Jul-18 19:30N 52°25' E 003°35'814.7
2017-Jul-18 18:59N 52°20' E 003°27'714.4
2017-Jul-18 18:29N 52°14' E 003°20'714.1
2017-Jul-18 18:00N 52°08' E 003°13'713.7
2017-Jul-18 17:30N 52°03' E 003°06'612.8
2017-Jul-18 17:01N 51°60' E 002°57'713.2
2017-Jul-18 16:31N 51°55' E 002°50'713.2
2017-Jul-18 16:00N 51°49' E 002°45'712.9
2017-Jul-18 15:30N 51°43' E 002°41'713.3
2017-Jul-18 15:00N 51°37' E 002°43'1313.1
2017-Jul-18 14:00N 51°23' E 002°43'510.1
2017-Jul-18 13:30N 51°22' E 002°51'815.5
2017-Jul-18 13:00N 51°22' E 003°03'611.8
2017-Jul-18 12:30N 51°21' E 003°12'0 0.9
2017-Jul-18 12:00N 51°21' E 003°12'0 0.0
2017-Jul-18 11:30N 51°21' E 003°12'0 0.0
2017-Jul-18 11:00N 51°21' E 003°12'0 0.0
2017-Jul-18 10:30N 51°21' E 003°12'0 0.0
2017-Jul-18 10:00N 51°21' E 003°12'0 0.0
2017-Jul-18 09:30N 51°21' E 003°12'0 0.0
2017-Jul-18 09:00N 51°21' E 003°12'0 0.0
2017-Jul-18 08:30N 51°21' E 003°12'0 0.0
2017-Jul-18 08:00N 51°21' E 003°12'0 0.0
2017-Jul-18 07:27N 51°21' E 003°12'0 0.0
2017-Jul-18 07:00N 51°21' E 003°12'0 0.0
2017-Jul-18 06:30N 51°21' E 003°12'0 0.0
2017-Jul-18 06:00N 51°21' E 003°12'0 0.5
2017-Jul-18 05:30N 51°21' E 003°12'611.1
2017-Jul-18 05:00N 51°24' E 003°05'714.1
2017-Jul-18 04:30N 51°22' E 002°54'612.4
2017-Jul-18 04:00N 51°21' E 002°44'5 9.1
2017-Jul-18 03:30N 51°22' E 002°37'5 9.3
2017-Jul-18 03:00N 51°26' E 002°32'816.4
2017-Jul-18 02:30N 51°33' E 002°37'816.0
2017-Jul-18 02:00N 51°41' E 002°39'815.9
2017-Jul-18 01:30N 51°49' E 002°37'815.8
2017-Jul-18 01:01N 51°57' E 002°36'815.5
2017-Jul-18 00:30N 52°05' E 002°36'715.0
2017-Jul-18 00:00N 52°12' E 002°40'714.8
2017-Jul-17 23:31N 52°18' E 002°45'714.4
2017-Jul-17 23:01N 52°25' E 002°50'714.2
2017-Jul-17 22:31N 52°31' E 002°56'714.0
2017-Jul-17 22:00N 52°37' E 003°01'713.8
2017-Jul-17 21:30N 52°44' E 003°06'713.6
2017-Jul-17 21:00N 52°50' E 003°11'813.5
2017-Jul-17 20:26N 52°57' E 003°17'713.7
2017-Jul-17 19:56N 53°03' E 003°20'614.0
2017-Jul-17 19:30N 53°09' E 003°23'714.3
2017-Jul-17 19:00N 53°16' E 003°26'814.8
2017-Jul-17 18:29N 53°23' E 003°30'3714.5
2017-Jul-17 15:57N 53°54' E 004°05'714.9
2017-Jul-17 15:30N 53°58' E 004°14'814.7
2017-Jul-17 14:59N 54°03' E 004°24'714.5
2017-Jul-17 14:29N 54°10' E 004°25'25814.6
2017-Jul-16 20:48N 58°26' E 005°14'414.5
2017-Jul-16 20:30N 58°30' E 005°16'714.4
2017-Jul-16 20:00N 58°37' E 005°19'714.2
2017-Jul-16 19:30N 58°44' E 005°22'612.8
2017-Jul-16 19:00N 58°50' E 005°26'611.7
2017-Jul-16 18:30N 58°55' E 005°33'714.7
2017-Jul-16 18:01N 59°03' E 005°33'611.1
2017-Jul-16 17:30N 58°60' E 005°42'2 2.8
2017-Jul-16 16:58N 58°58' E 005°44'0 0.0
2017-Jul-16 16:28N 58°58' E 005°44'0 0.0
2017-Jul-16 15:58N 58°58' E 005°44'0 0.0
2017-Jul-16 15:28N 58°58' E 005°44'0 0.0
2017-Jul-16 14:58N 58°58' E 005°44'0 0.0
2017-Jul-16 14:28N 58°58' E 005°44'0 0.0
2017-Jul-16 13:58N 58°58' E 005°44'0 0.0
2017-Jul-16 13:28N 58°58' E 005°44'0 0.0
2017-Jul-16 12:58N 58°58' E 005°44'0 0.0
2017-Jul-16 12:28N 58°58' E 005°44'0 0.0
2017-Jul-16 11:58N 58°58' E 005°44'0 0.0
2017-Jul-16 11:28N 58°58' E 005°44'0 0.0
2017-Jul-16 10:58N 58°58' E 005°44'0 0.0
2017-Jul-16 10:28N 58°58' E 005°44'0 0.0
2017-Jul-16 09:58N 58°58' E 005°44'0 0.0
2017-Jul-16 09:28N 58°58' E 005°44'0 0.0
2017-Jul-16 08:58N 58°58' E 005°44'0 0.0
2017-Jul-16 08:28N 58°58' E 005°44'3 6.2
2017-Jul-16 08:00N 59°01' E 005°40'714.7
2017-Jul-16 07:30N 59°06' E 005°30'713.2
2017-Jul-16 07:00N 59°07' E 005°18'714.0
2017-Jul-16 06:30N 59°09' E 005°05'714.2
2017-Jul-16 06:00N 59°13' E 004°54'713.8
2017-Jul-16 05:30N 59°19' E 004°47'814.9
2017-Jul-16 04:59N 59°27' E 004°46'714.9
2017-Jul-16 04:30N 59°34' E 004°46'714.5
2017-Jul-16 04:00N 59°41' E 004°47'714.0
2017-Jul-16 03:30N 59°48' E 004°47'714.0
2017-Jul-16 03:00N 59°55' E 004°46'713.7
2017-Jul-16 02:30N 60°02' E 004°46'713.6
2017-Jul-16 02:00N 60°09' E 004°46'713.1
2017-Jul-16 01:30N 60°16' E 004°44'612.6
2017-Jul-16 01:00N 60°22' E 004°42'612.2
2017-Jul-16 00:30N 60°28' E 004°40'510.7
2017-Jul-16 00:00N 60°33' E 004°37'5 9.7
2017-Jul-15 23:30N 60°38' E 004°35'5 9.3
2017-Jul-15 23:00N 60°42' E 004°32'510.2
2017-Jul-15 22:30N 60°47' E 004°27'510.1
2017-Jul-15 22:00N 60°51' E 004°24'510.3
2017-Jul-15 21:30N 60°57' E 004°22'510.4
2017-Jul-15 21:00N 61°02' E 004°21'510.8
2017-Jul-15 20:30N 61°07' E 004°21'611.3
2017-Jul-15 20:00N 61°13' E 004°22'611.6
2017-Jul-15 19:30N 61°19' E 004°22'612.3
2017-Jul-15 19:00N 61°25' E 004°23'612.6
2017-Jul-15 18:30N 61°31' E 004°25'612.6
2017-Jul-15 18:00N 61°37' E 004°26'612.7
2017-Jul-15 17:30N 61°44' E 004°27'713.1
2017-Jul-15 17:00N 61°49' E 004°33'713.3
2017-Jul-15 16:30N 61°56' E 004°38'713.3
2017-Jul-15 16:00N 62°02' E 004°43'713.4
2017-Jul-15 15:30N 62°08' E 004°47'612.5
2017-Jul-15 15:00N 62°13' E 004°54'10 9.7
2017-Jul-15 14:00N 62°21' E 005°08'5 9.4
2017-Jul-15 13:29N 62°24' E 005°17'611.9
2017-Jul-15 13:00N 62°27' E 005°27'714.1
2017-Jul-15 12:30N 62°30' E 005°41'714.0
2017-Jul-15 12:00N 62°27' E 005°55'511.0
2017-Jul-15 11:30N 62°27' E 006°06'2 3.7
2017-Jul-15 11:00N 62°28' E 006°09'0 0.0
2017-Jul-15 10:25N 62°28' E 006°09'0 0.0
2017-Jul-15 09:58N 62°28' E 006°09'0 0.0
2017-Jul-15 09:28N 62°28' E 006°09'0 0.0
2017-Jul-15 08:58N 62°28' E 006°09'0 0.0
2017-Jul-15 08:28N 62°28' E 006°09'0 0.0
2017-Jul-15 07:58N 62°28' E 006°09'0 0.0
2017-Jul-15 07:28N 62°28' E 006°09'0 0.0
2017-Jul-15 06:58N 62°28' E 006°09'0 0.0
2017-Jul-15 06:28N 62°28' E 006°09'0 0.0
2017-Jul-15 05:58N 62°28' E 006°09'0 0.0
2017-Jul-15 05:28N 62°28' E 006°09'0 0.0
2017-Jul-15 04:58N 62°28' E 006°09'1 1.2
2017-Jul-15 04:30N 62°28' E 006°10'3 5.2
2017-Jul-15 04:00N 62°28' E 006°05'5 9.7
2017-Jul-15 03:30N 62°32' E 006°10'510.3
2017-Jul-15 03:00N 62°36' E 006°17'510.4
2017-Jul-15 02:30N 62°40' E 006°25'510.4
2017-Jul-15 02:00N 62°44' E 006°31'510.5
2017-Jul-15 01:30N 62°48' E 006°37'510.5
2017-Jul-15 01:00N 62°53' E 006°43'510.5
2017-Jul-15 00:30N 62°57' E 006°50'510.2
2017-Jul-15 00:00N 62°60' E 006°60'611.2
2017-Jul-14 23:30N 63°02' E 007°11'611.3
2017-Jul-14 23:00N 63°04' E 007°23'611.4
2017-Jul-14 22:30N 63°07' E 007°34'4 8.5
2017-Jul-14 22:00N 63°06' E 007°43'1 1.1
2017-Jul-14 21:30N 63°07' E 007°44'0 0.0
2017-Jul-14 21:00N 63°07' E 007°44'0 0.0
2017-Jul-14 20:30N 63°07' E 007°44'0 0.0
2017-Jul-14 20:00N 63°07' E 007°44'0 0.0
2017-Jul-14 19:30N 63°07' E 007°44'0 0.0
2017-Jul-14 19:00N 63°07' E 007°44'0 0.0
2017-Jul-14 18:30N 63°07' E 007°44'0 0.0
2017-Jul-14 18:00N 63°07' E 007°44'0 0.0
2017-Jul-14 17:30N 63°07' E 007°44'0 0.0
2017-Jul-14 17:00N 63°07' E 007°44'0 0.0
2017-Jul-14 16:30N 63°07' E 007°44'0 0.0
2017-Jul-14 16:00N 63°07' E 007°44'0 0.0
2017-Jul-14 15:30N 63°07' E 007°44'0 0.0
2017-Jul-14 15:00N 63°07' E 007°44'0 0.0
2017-Jul-14 14:30N 63°07' E 007°44'0 0.0
2017-Jul-14 14:00N 63°07' E 007°44'0 0.0
2017-Jul-14 13:30N 63°07' E 007°44'0 0.0
2017-Jul-14 13:00N 63°07' E 007°44'0 0.0
2017-Jul-14 12:30N 63°07' E 007°44'0 0.0
2017-Jul-14 12:00N 63°07' E 007°44'0 0.0
2017-Jul-14 11:30N 63°07' E 007°44'0 0.0
2017-Jul-14 11:00N 63°07' E 007°44'0 0.0
2017-Jul-14 10:30N 63°07' E 007°44'0 0.0
2017-Jul-14 10:00N 63°07' E 007°44'0 0.0
2017-Jul-14 09:30N 63°07' E 007°44'0 1.0
2017-Jul-14 09:00N 63°06' E 007°45'3 5.7
2017-Jul-14 08:30N 63°09' E 007°42'5 9.5
2017-Jul-14 08:00N 63°14' E 007°44'611.3
2017-Jul-14 07:30N 63°18' E 007°36'713.2
2017-Jul-14 07:00N 63°25' E 007°36'612.8
2017-Jul-14 06:30N 63°31' E 007°37'713.2
2017-Jul-14 06:00N 63°37' E 007°45'713.3
2017-Jul-14 05:30N 63°43' E 007°52'713.3
2017-Jul-14 05:00N 63°49' E 007°59'713.3
2017-Jul-14 04:29N 63°54' E 008°07'17112.2
2017-Jul-13 14:25N 66°23' E 011°28'410.6
2017-Jul-13 14:01N 66°27' E 011°33'510.7
2017-Jul-13 13:30N 66°32' E 011°40'510.6
2017-Jul-13 13:00N 66°36' E 011°46'510.7
2017-Jul-13 12:31N 66°41' E 011°53'4110.7
2017-Jul-13 08:44N 67°13' E 012°56'311.4
2017-Jul-13 08:30N 67°15' E 013°00'611.4
2017-Jul-13 08:00N 67°20' E 013°09'713.7
2017-Jul-13 07:30N 67°25' E 013°20'815.2
2017-Jul-13 07:00N 67°31' E 013°33'815.1
2017-Jul-13 06:30N 67°37' E 013°44'815.0
2017-Jul-13 06:00N 67°43' E 013°57'815.1
2017-Jul-13 05:30N 67°49' E 014°09'815.1
2017-Jul-13 05:00N 67°55' E 014°22'815.2
2017-Jul-13 04:30N 67°60' E 014°37'815.4
2017-Jul-13 04:00N 68°04' E 014°54'815.3
2017-Jul-13 03:30N 68°08' E 015°12'815.3
2017-Jul-13 03:00N 68°12' E 015°30'815.0
2017-Jul-13 02:30N 68°17' E 015°46'714.9
2017-Jul-13 02:00N 68°22' E 015°60'612.2
2017-Jul-13 01:30N 68°28' E 016°05'713.8
2017-Jul-13 01:00N 68°33' E 016°17'611.8
2017-Jul-13 00:30N 68°35' E 016°32'714.7
2017-Jul-13 00:00N 68°41' E 016°41'815.3
2017-Jul-12 23:30N 68°48' E 016°50'815.0
2017-Jul-12 23:00N 68°54' E 017°02'714.6
2017-Jul-12 22:30N 68°60' E 017°15'714.3
2017-Jul-12 22:00N 69°06' E 017°27'713.8
2017-Jul-12 21:30N 69°08' E 017°44'713.6
2017-Jul-12 21:00N 69°11' E 018°01'612.1
2017-Jul-12 20:30N 69°17' E 017°58'611.8
2017-Jul-12 20:01N 69°23' E 018°05'612.7
2017-Jul-12 19:30N 69°29' E 018°10'713.7
2017-Jul-12 19:01N 69°32' E 018°28'814.8
2017-Jul-12 18:30N 69°34' E 018°48'610.8
2017-Jul-12 17:59N 69°39' E 018°58'0 0.0
2017-Jul-12 17:29N 69°39' E 018°58'0 0.0
2017-Jul-12 16:59N 69°39' E 018°58'0 0.0
2017-Jul-12 16:29N 69°39' E 018°58'0 0.0
2017-Jul-12 15:59N 69°39' E 018°58'0 0.0
2017-Jul-12 15:29N 69°39' E 018°58'0 0.0
2017-Jul-12 14:59N 69°39' E 018°58'0 0.0
2017-Jul-12 13:59N 69°39' E 018°58'0 0.0
2017-Jul-12 13:29N 69°39' E 018°58'0 0.0
2017-Jul-12 12:59N 69°39' E 018°58'0 0.0
2017-Jul-12 12:29N 69°39' E 018°58'0 0.0
2017-Jul-12 11:59N 69°39' E 018°58'0 0.0
2017-Jul-12 11:29N 69°39' E 018°58'1 1.5
2017-Jul-12 11:00N 69°39' E 018°59'4 7.6
2017-Jul-12 10:30N 69°43' E 019°03'611.1
2017-Jul-12 09:59N 69°47' E 019°14'612.8
2017-Jul-12 09:30N 69°49' E 019°32'612.9
2017-Jul-12 09:00N 69°52' E 019°48'713.3
2017-Jul-12 08:30N 69°56' E 020°04'712.9
2017-Jul-12 08:00N 69°60' E 020°19'713.1
2017-Jul-12 07:30N 70°01' E 020°38'713.1
2017-Jul-12 07:00N 70°04' E 020°55'713.2
2017-Jul-12 06:30N 70°10' E 021°04'612.9
2017-Jul-12 06:00N 70°15' E 021°15'714.1
2017-Jul-12 05:30N 70°20' E 021°30'713.9
2017-Jul-12 05:00N 70°25' E 021°45'714.6
2017-Jul-12 04:30N 70°27' E 022°06'814.9
2017-Jul-12 04:00N 70°28' E 022°29'713.9
2017-Jul-12 03:31N 70°30' E 022°48'713.7
2017-Jul-12 03:00N 70°34' E 023°05'713.7
2017-Jul-12 02:30N 70°39' E 023°20'613.1
2017-Jul-12 02:01N 70°43' E 023°33'713.8
2017-Jul-12 01:30N 70°49' E 023°48'714.0
2017-Jul-12 01:00N 70°53' E 024°04'714.0
2017-Jul-12 00:30N 70°58' E 024°20'713.5
2017-Jul-12 00:00N 71°02' E 024°36'714.5
2017-Jul-11 23:30N 70°60' E 024°57'714.8
2017-Jul-11 23:00N 70°59' E 025°20'714.2
2017-Jul-11 22:30N 70°56' E 025°39'613.0
2017-Jul-11 22:00N 70°58' E 025°56'1 1.7
2017-Jul-11 21:30N 70°59' E 025°58'0 0.0
2017-Jul-11 21:00N 70°59' E 025°58'0 0.0
2017-Jul-11 20:30N 70°59' E 025°58'0 0.0
2017-Jul-11 20:00N 70°59' E 025°58'0 0.0
2017-Jul-11 19:30N 70°59' E 025°58'0 0.0
2017-Jul-11 19:00N 70°59' E 025°58'0 0.0
2017-Jul-11 18:30N 70°59' E 025°58'0 0.0
2017-Jul-11 18:00N 70°59' E 025°58'0 0.0
2017-Jul-11 17:30N 70°59' E 025°58'0 0.0
2017-Jul-11 17:00N 70°59' E 025°58'0 0.0
2017-Jul-11 16:30N 70°59' E 025°58'0 0.0
2017-Jul-11 16:00N 70°59' E 025°58'1 1.3
2017-Jul-11 15:30N 70°59' E 025°56'5 9.1
2017-Jul-11 15:00N 70°56' E 025°44'714.4
2017-Jul-11 14:30N 70°59' E 025°24'714.9
2017-Jul-11 14:00N 70°59' E 025°01'815.5
2017-Jul-11 13:30N 71°02' E 024°38'714.0
2017-Jul-11 13:00N 70°58' E 024°20'815.7
2017-Jul-11 12:30N 70°52' E 024°03'715.1
2017-Jul-11 12:00N 70°47' E 023°46'714.7
2017-Jul-11 11:30N 70°42' E 023°30'815.1
2017-Jul-11 11:00N 70°37' E 023°14'815.4
2017-Jul-11 10:30N 70°31' E 022°58'815.3
2017-Jul-11 10:00N 70°28' E 022°36'714.8
2017-Jul-11 09:30N 70°27' E 022°15'714.9
2017-Jul-11 09:00N 70°25' E 021°53'714.4
2017-Jul-11 08:30N 70°22' E 021°35'815.1
2017-Jul-11 08:00N 70°16' E 021°18'714.1
2017-Jul-11 07:30N 70°11' E 021°05'715.0
2017-Jul-11 07:00N 70°04' E 020°55'714.8
2017-Jul-11 06:30N 70°01' E 020°35'815.1
2017-Jul-11 06:00N 69°59' E 020°14'815.1
2017-Jul-11 05:30N 69°54' E 019°57'814.9
2017-Jul-11 05:00N 69°50' E 019°39'815.3
2017-Jul-11 04:30N 69°47' E 019°19'714.7
2017-Jul-11 04:00N 69°44' E 019°00'612.4
2017-Jul-11 03:30N 69°38' E 018°53'612.1
2017-Jul-11 03:00N 69°33' E 018°43'713.9
2017-Jul-11 02:30N 69°31' E 018°23'713.6
2017-Jul-11 02:00N 69°27' E 018°07'713.6
2017-Jul-11 01:30N 69°21' E 018°05'612.4
2017-Jul-11 01:01N 69°15' E 017°58'510.5
2017-Jul-11 00:30N 69°10' E 017°57'815.2
2017-Jul-11 00:00N 69°07' E 017°37'714.5
2017-Jul-10 23:30N 69°03' E 017°20'715.0
2017-Jul-10 23:00N 68°57' E 017°07'815.0
2017-Jul-10 22:30N 68°51' E 016°55'714.8
2017-Jul-10 22:00N 68°45' E 016°45'714.2
2017-Jul-10 21:30N 68°38' E 016°36'612.1
2017-Jul-10 21:00N 68°33' E 016°26'713.1
2017-Jul-10 20:30N 68°31' E 016°10'713.2
2017-Jul-10 20:00N 68°25' E 016°03'714.3
2017-Jul-10 19:30N 68°19' E 015°52'714.7
2017-Jul-10 19:00N 68°14' E 015°38'714.8
2017-Jul-10 18:30N 68°11' E 015°19'714.6
2017-Jul-10 18:00N 68°08' E 015°01'714.7
2017-Jul-10 17:30N 68°06' E 014°42'714.7
2017-Jul-10 17:00N 68°04' E 014°24'714.8
2017-Jul-10 16:30N 68°03' E 014°04'815.2
2017-Jul-10 16:00N 68°02' E 013°44'510.4
2017-Jul-10 15:31N 68°06' E 013°36'1 2.7
2017-Jul-10 14:58N 68°08' E 013°34'0 0.0
2017-Jul-10 14:28N 68°08' E 013°34'  

Dump ship's entire track history